Woodhall Spa, United Kingdom
Current Conditions -  °F | °C
As of 7:50 PM on Sunday 25 Jan 2015 (Local Time) from EGXC Reporting Station
Clear Clear  
Wind Chill: 38°   Ceiling: Unl
Heat Index: 45°   Visibility: 6mi
Dew Point: 43°   Wind: 13mph
Humidity: 93%   Direction: 240°WSW
Pressure: 30.21"   Gusts: NA
Location:  53.15°N, 0.21°W
Report Text: EGXC 251950Z 24011KT CAVOK 07/06 Q1023 BLU
Loading
Personal Weather Stations






























Interactive Weather Map New forecast layout! Learn more

10-Day Weather Forecast

Advertisements
Track Severe Weather on mobile